sensor_id;sensor_type;location;lat;lon;timestamp;pressure;altitude;pressure_sealevel;temperature;humidity
20013;BME280;10167;42.852;23.042;2023-03-19T00:01:13;95420.63;;;1.56;100.00
20013;BME280;10167;42.852;23.042;2023-03-19T00:03:43;95420.25;;;1.59;100.00
20013;BME280;10167;42.852;23.042;2023-03-19T00:06:14;95425.19;;;1.54;100.00
20013;BME280;10167;42.852;23.042;2023-03-19T00:08:43;95414.06;;;1.60;100.00
20013;BME280;10167;42.852;23.042;2023-03-19T00:11:12;95414.09;;;1.52;100.00
20013;BME280;10167;42.852;23.042;2023-03-19T00:13:42;95407.91;;;1.53;100.00
20013;BME280;10167;42.852;23.042;2023-03-19T00:16:11;95400.72;;;1.47;100.00
20013;BME280;10167;42.852;23.042;2023-03-19T00:18:41;95399.47;;;1.43;100.00
20013;BME280;10167;42.852;23.042;2023-03-19T00:21:11;95407.31;;;1.35;100.00
20013;BME280;10167;42.852;23.042;2023-03-19T00:23:41;95396.88;;;1.35;100.00
20013;BME280;10167;42.852;23.042;2023-03-19T00:26:11;95391.34;;;1.30;100.00
20013;BME280;10167;42.852;23.042;2023-03-19T00:28:40;95395.56;;;1.31;100.00
20013;BME280;10167;42.852;23.042;2023-03-19T00:31:12;95385.78;;;1.25;100.00
20013;BME280;10167;42.852;23.042;2023-03-19T00:33:42;95382.84;;;1.28;100.00
20013;BME280;10167;42.852;23.042;2023-03-19T00:36:12;95384.81;;;1.26;100.00
20013;BME280;10167;42.852;23.042;2023-03-19T00:38:45;95386.00;;;1.23;100.00
20013;BME280;10167;42.852;23.042;2023-03-19T00:41:15;95383.03;;;1.26;100.00
20013;BME280;10167;42.852;23.042;2023-03-19T00:43:45;95383.34;;;1.31;100.00
20013;BME280;10167;42.852;23.042;2023-03-19T00:46:14;95377.81;;;1.34;100.00
20013;BME280;10167;42.852;23.042;2023-03-19T00:48:43;95363.47;;;1.30;100.00
20013;BME280;10167;42.852;23.042;2023-03-19T00:51:12;95366.56;;;1.26;100.00
20013;BME280;10167;42.852;23.042;2023-03-19T00:53:44;95371.00;;;1.17;100.00
20013;BME280;10167;42.852;23.042;2023-03-19T00:56:16;95367.06;;;1.13;100.00
20013;BME280;10167;42.852;23.042;2023-03-19T00:58:46;95365.97;;;1.07;100.00
20013;BME280;10167;42.852;23.042;2023-03-19T01:01:16;95361.88;;;1.05;100.00
20013;BME280;10167;42.852;23.042;2023-03-19T01:03:46;95364.69;;;0.95;100.00
20013;BME280;10167;42.852;23.042;2023-03-19T01:06:15;95359.97;;;0.83;100.00
20013;BME280;10167;42.852;23.042;2023-03-19T01:08:46;95355.75;;;0.73;100.00
20013;BME280;10167;42.852;23.042;2023-03-19T01:11:17;95354.31;;;0.63;100.00
20013;BME280;10167;42.852;23.042;2023-03-19T01:13:47;95357.56;;;0.65;100.00
20013;BME280;10167;42.852;23.042;2023-03-19T01:16:16;95354.94;;;0.73;100.00
20013;BME280;10167;42.852;23.042;2023-03-19T01:18:47;95353.97;;;0.74;100.00
20013;BME280;10167;42.852;23.042;2023-03-19T01:21:16;95358.84;;;0.77;100.00
20013;BME280;10167;42.852;23.042;2023-03-19T01:23:50;95353.00;;;0.75;100.00
20013;BME280;10167;42.852;23.042;2023-03-19T01:26:22;95358.53;;;0.72;100.00
20013;BME280;10167;42.852;23.042;2023-03-19T01:28:56;95356.91;;;0.63;100.00
20013;BME280;10167;42.852;23.042;2023-03-19T01:31:26;95352.84;;;0.60;100.00
20013;BME280;10167;42.852;23.042;2023-03-19T01:34:14;95344.53;;;0.57;100.00
20013;BME280;10167;42.852;23.042;2023-03-19T01:36:49;95354.63;;;0.60;100.00
20013;BME280;10167;42.852;23.042;2023-03-19T01:39:27;95345.84;;;0.53;100.00
20013;BME280;10167;42.852;23.042;2023-03-19T01:42:00;95350.09;;;0.54;100.00
20013;BME280;10167;42.852;23.042;2023-03-19T01:44:38;95346.50;;;0.55;100.00
20013;BME280;10167;42.852;23.042;2023-03-19T01:47:32;95353.97;;;0.50;100.00
20013;BME280;10167;42.852;23.042;2023-03-19T01:50:22;95355.63;;;0.43;100.00
20013;BME280;10167;42.852;23.042;2023-03-19T01:53:33;95359.88;;;0.44;100.00
20013;BME280;10167;42.852;23.042;2023-03-19T01:56:30;95356.44;;;0.51;100.00
20013;BME280;10167;42.852;23.042;2023-03-19T01:59:22;95356.75;;;0.48;100.00
20013;BME280;10167;42.852;23.042;2023-03-19T02:02:21;95353.97;;;0.50;100.00
20013;BME280;10167;42.852;23.042;2023-03-19T02:04:55;95358.22;;;0.59;100.00
20013;BME280;10167;42.852;23.042;2023-03-19T02:07:28;95353.66;;;0.61;100.00
20013;BME280;10167;42.852;23.042;2023-03-19T02:10:00;95359.53;;;0.63;100.00
20013;BME280;10167;42.852;23.042;2023-03-19T02:12:32;95357.88;;;0.70;100.00
20013;BME280;10167;42.852;23.042;2023-03-19T02:15:02;95359.66;;;0.69;100.00
20013;BME280;10167;42.852;23.042;2023-03-19T02:17:32;95358.84;;;0.69;100.00
20013;BME280;10167;42.852;23.042;2023-03-19T02:20:08;95355.78;;;0.65;100.00
20013;BME280;10167;42.852;23.042;2023-03-19T02:22:45;95359.34;;;0.64;100.00
20013;BME280;10167;42.852;23.042;2023-03-19T02:25:23;95360.16;;;0.65;100.00
20013;BME280;10167;42.852;23.042;2023-03-19T02:27:54;95362.28;;;0.69;100.00
20013;BME280;10167;42.852;23.042;2023-03-19T02:30:26;95359.84;;;0.52;100.00
20013;BME280;10167;42.852;23.042;2023-03-19T02:32:58;95371.25;;;0.67;100.00
20013;BME280;10167;42.852;23.042;2023-03-19T02:35:31;95369.44;;;0.59;100.00
20013;BME280;10167;42.852;23.042;2023-03-19T02:38:02;95358.38;;;0.57;100.00
20013;BME280;10167;42.852;23.042;2023-03-19T02:40:35;95363.91;;;0.46;100.00
20013;BME280;10167;42.852;23.042;2023-03-19T02:43:07;95376.31;;;0.44;100.00
20013;BME280;10167;42.852;23.042;2023-03-19T02:45:36;95370.41;;;0.34;100.00
20013;BME280;10167;42.852;23.042;2023-03-19T02:48:05;95371.38;;;0.25;100.00
20013;BME280;10167;42.852;23.042;2023-03-19T02:50:34;95370.91;;;0.21;100.00
20013;BME280;10167;42.852;23.042;2023-03-19T02:53:05;95366.84;;;0.19;100.00
20013;BME280;10167;42.852;23.042;2023-03-19T02:55:34;95370.25;;;0.19;100.00
20013;BME280;10167;42.852;23.042;2023-03-19T02:58:03;95376.59;;;0.25;100.00
20013;BME280;10167;42.852;23.042;2023-03-19T03:00:34;95374.97;;;0.24;100.00
20013;BME280;10167;42.852;23.042;2023-03-19T03:03:04;95379.72;;;0.28;100.00
20013;BME280;10167;42.852;23.042;2023-03-19T03:05:34;95376.75;;;0.23;100.00
20013;BME280;10167;42.852;23.042;2023-03-19T03:08:03;95379.72;;;0.28;100.00
20013;BME280;10167;42.852;23.042;2023-03-19T03:10:33;95382.16;;;0.30;100.00
20013;BME280;10167;42.852;23.042;2023-03-19T03:13:03;95382.31;;;0.28;100.00
20013;BME280;10167;42.852;23.042;2023-03-19T03:15:35;95382.31;;;0.20;100.00
20013;BME280;10167;42.852;23.042;2023-03-19T03:18:04;95372.06;;;0.19;100.00
20013;BME280;10167;42.852;23.042;2023-03-19T03:20:33;95376.28;;;0.20;100.00
20013;BME280;10167;42.852;23.042;2023-03-19T03:23:04;95378.53;;;0.15;100.00
20013;BME280;10167;42.852;23.042;2023-03-19T03:25:34;95382.63;;;0.25;100.00
20013;BME280;10167;42.852;23.042;2023-03-19T03:28:04;95369.59;;;0.25;100.00
20013;BME280;10167;42.852;23.042;2023-03-19T03:30:34;95371.72;;;0.22;100.00
20013;BME280;10167;42.852;23.042;2023-03-19T03:33:04;95374.16;;;0.23;100.00
20013;BME280;10167;42.852;23.042;2023-03-19T03:35:33;95380.69;;;0.27;100.00
20013;BME280;10167;42.852;23.042;2023-03-19T03:38:03;95381.66;;;0.18;100.00
20013;BME280;10167;42.852;23.042;2023-03-19T03:40:33;95377.25;;;0.27;100.00
20013;BME280;10167;42.852;23.042;2023-03-19T03:43:03;95379.88;;;0.27;100.00
20013;BME280;10167;42.852;23.042;2023-03-19T03:45:36;95376.13;;;0.21;100.00
20013;BME280;10167;42.852;23.042;2023-03-19T03:48:05;95376.91;;;0.14;100.00
20013;BME280;10167;42.852;23.042;2023-03-19T03:50:35;95379.03;;;0.18;100.00
20013;BME280;10167;42.852;23.042;2023-03-19T03:53:07;95382.63;;;0.09;100.00
20013;BME280;10167;42.852;23.042;2023-03-19T03:55:38;95379.34;;;-0.01;100.00
20013;BME280;10167;42.852;23.042;2023-03-19T03:58:12;95386.16;;;-0.08;100.00
20013;BME280;10167;42.852;23.042;2023-03-19T04:00:43;95385.19;;;-0.07;100.00
20013;BME280;10167;42.852;23.042;2023-03-19T04:03:14;95383.69;;;-0.10;100.00
20013;BME280;10167;42.852;23.042;2023-03-19T04:05:44;95383.03;;;-0.20;100.00
20013;BME280;10167;42.852;23.042;2023-03-19T04:08:14;95386.47;;;-0.11;100.00
20013;BME280;10167;42.852;23.042;2023-03-19T04:10:44;95387.78;;;-0.07;100.00
20013;BME280;10167;42.852;23.042;2023-03-19T04:13:13;95385.50;;;-0.10;100.00
20013;BME280;10167;42.852;23.042;2023-03-19T04:15:44;95394.28;;;-0.11;100.00
20013;BME280;10167;42.852;23.042;2023-03-19T04:18:13;95389.06;;;-0.11;100.00
20013;BME280;10167;42.852;23.042;2023-03-19T04:20:43;95386.44;;;-0.19;100.00
20013;BME280;10167;42.852;23.042;2023-03-19T04:23:12;95391.19;;;-0.23;100.00
20013;BME280;10167;42.852;23.042;2023-03-19T04:25:42;95388.06;;;-0.26;100.00
20013;BME280;10167;42.852;23.042;2023-03-19T04:28:11;95387.41;;;-0.20;100.00
20013;BME280;10167;42.852;23.042;2023-03-19T04:30:40;95390.50;;;-0.25;100.00
20013;BME280;10167;42.852;23.042;2023-03-19T04:33:13;95392.25;;;-0.33;100.00
20013;BME280;10167;42.852;23.042;2023-03-19T04:35:42;95391.00;;;-0.21;100.00
20013;BME280;10167;42.852;23.042;2023-03-19T04:38:11;95396.16;;;-0.38;100.00
20013;BME280;10167;42.852;23.042;2023-03-19T04:40:40;95385.25;;;-0.41;100.00
20013;BME280;10167;42.852;23.042;2023-03-19T04:43:10;95386.06;;;-0.41;100.00
20013;BME280;10167;42.852;23.042;2023-03-19T04:45:40;95392.91;;;-0.40;100.00
20013;BME280;10167;42.852;23.042;2023-03-19T04:48:10;95389.97;;;-0.37;100.00
20013;BME280;10167;42.852;23.042;2023-03-19T04:50:42;95387.41;;;-0.28;100.00
20013;BME280;10167;42.852;23.042;2023-03-19T04:53:12;95391.00;;;-0.21;100.00
20013;BME280;10167;42.852;23.042;2023-03-19T04:55:41;95388.06;;;-0.26;100.00
20013;BME280;10167;42.852;23.042;2023-03-19T04:58:16;95383.97;;;-0.29;100.00
20013;BME280;10167;42.852;23.042;2023-03-19T05:00:53;95392.47;;;-0.11;100.00
20013;BME280;10167;42.852;23.042;2023-03-19T05:03:36;95394.78;;;0.00;100.00
20013;BME280;10167;42.852;23.042;2023-03-19T05:06:06;95395.13;;;-0.03;100.00
20013;BME280;10167;42.852;23.042;2023-03-19T05:08:36;95380.84;;;0.18;100.00
20013;BME280;10167;42.852;23.042;2023-03-19T05:11:05;95389.16;;;0.21;100.00
20013;BME280;10167;42.852;23.042;2023-03-19T05:13:48;95395.50;;;0.35;100.00
20013;BME280;10167;42.852;23.042;2023-03-19T05:16:18;95389.66;;;0.73;100.00
20013;BME280;10167;42.852;23.042;2023-03-19T05:18:48;95397.53;;;1.29;100.00
20013;BME280;10167;42.852;23.042;2023-03-19T05:21:19;95398.25;;;1.93;100.00
20013;BME280;10167;42.852;23.042;2023-03-19T05:23:50;95399.09;;;2.47;100.00
20013;BME280;10167;42.852;23.042;2023-03-19T05:26:21;95403.50;;;2.46;100.00
20013;BME280;10167;42.852;23.042;2023-03-19T05:29:10;95407.22;;;3.42;100.00
20013;BME280;10167;42.852;23.042;2023-03-19T05:32:08;95412.63;;;4.35;99.56
20013;BME280;10167;42.852;23.042;2023-03-19T05:34:38;95419.38;;;5.08;88.86
20013;BME280;10167;42.852;23.042;2023-03-19T05:37:10;95424.56;;;5.51;81.67
20013;BME280;10167;42.852;23.042;2023-03-19T05:39:41;95417.78;;;6.04;77.55
20013;BME280;10167;42.852;23.042;2023-03-19T05:42:10;95415.13;;;6.51;72.79
20013;BME280;10167;42.852;23.042;2023-03-19T05:44:43;95411.56;;;7.12;69.33
20013;BME280;10167;42.852;23.042;2023-03-19T05:47:35;95414.00;;;7.07;67.50
20013;BME280;10167;42.852;23.042;2023-03-19T05:50:05;95422.47;;;7.75;62.83
20013;BME280;10167;42.852;23.042;2023-03-19T05:52:36;95424.13;;;8.27;60.57
20013;BME280;10167;42.852;23.042;2023-03-19T05:55:06;95427.72;;;8.84;58.63
20013;BME280;10167;42.852;23.042;2023-03-19T05:57:49;95432.94;;;9.71;56.09
20013;BME280;10167;42.852;23.042;2023-03-19T06:00:23;95441.84;;;10.20;53.55
20013;BME280;10167;42.852;23.042;2023-03-19T06:02:53;95443.69;;;10.19;52.45
20013;BME280;10167;42.852;23.042;2023-03-19T06:05:35;95447.47;;;10.78;51.23
20013;BME280;10167;42.852;23.042;2023-03-19T06:08:15;95440.03;;;11.28;49.63
20013;BME280;10167;42.852;23.042;2023-03-19T06:10:56;95441.97;;;11.33;49.01
20013;BME280;10167;42.852;23.042;2023-03-19T06:13:27;95445.59;;;11.62;48.26
20013;BME280;10167;42.852;23.042;2023-03-19T06:15:58;95445.06;;;11.30;48.13
20013;BME280;10167;42.852;23.042;2023-03-19T06:18:33;95445.84;;;11.72;48.02
20013;BME280;10167;42.852;23.042;2023-03-19T06:21:11;95444.69;;;10.55;50.69
20013;BME280;10167;42.852;23.042;2023-03-19T06:23:42;95447.69;;;10.77;50.47
20013;BME280;10167;42.852;23.042;2023-03-19T06:26:16;95459.47;;;10.63;51.75
20013;BME280;10167;42.852;23.042;2023-03-19T06:28:52;95444.19;;;10.95;50.24
20013;BME280;10167;42.852;23.042;2023-03-19T06:31:24;95455.22;;;10.91;50.75
20013;BME280;10167;42.852;23.042;2023-03-19T06:33:54;95456.38;;;10.96;50.04
20013;BME280;10167;42.852;23.042;2023-03-19T06:36:31;95460.34;;;10.02;52.50
20013;BME280;10167;42.852;23.042;2023-03-19T06:39:04;95456.69;;;10.21;53.50
20013;BME280;10167;42.852;23.042;2023-03-19T06:41:33;95455.47;;;9.80;53.82
20013;BME280;10167;42.852;23.042;2023-03-19T06:44:24;95446.09;;;9.35;54.92
20013;BME280;10167;42.852;23.042;2023-03-19T06:46:53;95449.16;;;8.05;58.26
20013;BME280;10167;42.852;23.042;2023-03-19T06:49:22;95445.16;;;7.82;61.91
20013;BME280;10167;42.852;23.042;2023-03-19T06:51:52;95445.81;;;7.25;67.89
20013;BME280;10167;42.852;23.042;2023-03-19T06:54:22;95438.50;;;7.34;68.30
20013;BME280;10167;42.852;23.042;2023-03-19T06:56:51;95440.94;;;7.48;68.59
20013;BME280;10167;42.852;23.042;2023-03-19T06:59:20;95451.84;;;7.85;69.15
20013;BME280;10167;42.852;23.042;2023-03-19T07:01:50;95446.75;;;7.96;67.82
20013;BME280;10167;42.852;23.042;2023-03-19T07:04:20;95450.09;;;8.30;66.20
20013;BME280;10167;42.852;23.042;2023-03-19T07:06:49;95449.81;;;8.00;68.38
20013;BME280;10167;42.852;23.042;2023-03-19T07:09:19;95451.34;;;8.14;66.63
20013;BME280;10167;42.852;23.042;2023-03-19T07:11:49;95456.72;;;7.88;65.17
20013;BME280;10167;42.852;23.042;2023-03-19T07:14:18;95449.72;;;8.20;65.28
20013;BME280;10167;42.852;23.042;2023-03-19T07:16:47;95455.75;;;8.47;65.21
20013;BME280;10167;42.852;23.042;2023-03-19T07:19:17;95452.78;;;8.74;62.44
20013;BME280;10167;42.852;23.042;2023-03-19T07:21:46;95453.84;;;8.60;62.40
20013;BME280;10167;42.852;23.042;2023-03-19T07:24:16;95446.63;;;8.43;63.05
20013;BME280;10167;42.852;23.042;2023-03-19T07:26:45;95443.78;;;8.44;64.91
20013;BME280;10167;42.852;23.042;2023-03-19T07:29:16;95440.56;;;8.80;62.93
20013;BME280;10167;42.852;23.042;2023-03-19T07:31:45;95451.09;;;8.87;64.37
20013;BME280;10167;42.852;23.042;2023-03-19T07:34:14;95450.94;;;8.75;64.05
20013;BME280;10167;42.852;23.042;2023-03-19T07:36:44;95455.50;;;7.84;66.05
20013;BME280;10167;42.852;23.042;2023-03-19T07:39:13;95453.66;;;7.97;67.72
20013;BME280;10167;42.852;23.042;2023-03-19T07:41:42;95457.66;;;8.13;65.56
20013;BME280;10167;42.852;23.042;2023-03-19T07:44:19;95448.16;;;8.06;66.03
20013;BME280;10167;42.852;23.042;2023-03-19T07:46:48;95457.19;;;8.36;65.01
20013;BME280;10167;42.852;23.042;2023-03-19T07:49:17;95454.22;;;8.70;65.74
20013;BME280;10167;42.852;23.042;2023-03-19T07:51:47;95452.81;;;9.31;62.11
20013;BME280;10167;42.852;23.042;2023-03-19T07:54:16;95461.06;;;9.41;63.16
20013;BME280;10167;42.852;23.042;2023-03-19T07:56:46;95453.97;;;8.79;63.83
20013;BME280;10167;42.852;23.042;2023-03-19T07:59:15;95455.50;;;8.93;62.87
20013;BME280;10167;42.852;23.042;2023-03-19T08:01:46;95453.84;;;9.30;63.48
20013;BME280;10167;42.852;23.042;2023-03-19T08:04:16;95448.44;;;9.18;60.70
20013;BME280;10167;42.852;23.042;2023-03-19T08:06:45;95450.72;;;9.64;60.67
20013;BME280;10167;42.852;23.042;2023-03-19T08:09:14;95458.09;;;9.80;61.47
20013;BME280;10167;42.852;23.042;2023-03-19T08:11:43;95449.75;;;9.59;61.30
20013;BME280;10167;42.852;23.042;2023-03-19T08:14:13;95451.84;;;9.93;62.27
20013;BME280;10167;42.852;23.042;2023-03-19T08:16:47;95453.66;;;10.54;60.91
20013;BME280;10167;42.852;23.042;2023-03-19T08:19:17;95447.09;;;10.75;57.64
20013;BME280;10167;42.852;23.042;2023-03-19T08:21:46;95445.72;;;10.84;55.94
20013;BME280;10167;42.852;23.042;2023-03-19T08:24:15;95450.63;;;11.28;56.09
20013;BME280;10167;42.852;23.042;2023-03-19T08:26:45;95453.06;;;11.42;55.58
20013;BME280;10167;42.852;23.042;2023-03-19T08:29:14;95452.19;;;11.71;53.92
20013;BME280;10167;42.852;23.042;2023-03-19T08:31:47;95442.25;;;11.55;53.10
20013;BME280;10167;42.852;23.042;2023-03-19T08:34:17;95443.22;;;12.19;51.39
20013;BME280;10167;42.852;23.042;2023-03-19T08:36:46;95442.16;;;12.08;50.32
20013;BME280;10167;42.852;23.042;2023-03-19T08:39:15;95446.03;;;12.52;51.83
20013;BME280;10167;42.852;23.042;2023-03-19T08:41:45;95433.00;;;12.39;50.06
20013;BME280;10167;42.852;23.042;2023-03-19T08:44:14;95436.19;;;12.53;50.83
20013;BME280;10167;42.852;23.042;2023-03-19T08:46:44;95437.41;;;12.33;51.26
20013;BME280;10167;42.852;23.042;2023-03-19T08:49:15;95439.31;;;12.90;48.80
20013;BME280;10167;42.852;23.042;2023-03-19T08:51:44;95446.09;;;12.97;46.85
20013;BME280;10167;42.852;23.042;2023-03-19T08:54:14;95438.19;;;13.14;46.81
20013;BME280;10167;42.852;23.042;2023-03-19T08:56:45;95437.34;;;13.42;45.82
20013;BME280;10167;42.852;23.042;2023-03-19T08:59:15;95428.88;;;13.28;45.51
20013;BME280;10167;42.852;23.042;2023-03-19T09:01:49;95426.44;;;12.98;43.54
20013;BME280;10167;42.852;23.042;2023-03-19T09:04:20;95432.66;;;13.49;44.73
20013;BME280;10167;42.852;23.042;2023-03-19T09:06:49;95424.84;;;13.76;43.51
20013;BME280;10167;42.852;23.042;2023-03-19T09:09:19;95421.78;;;13.84;42.92
20013;BME280;10167;42.852;23.042;2023-03-19T09:11:48;95413.97;;;13.61;44.15
20013;BME280;10167;42.852;23.042;2023-03-19T09:14:18;95418.00;;;14.18;43.33
20013;BME280;10167;42.852;23.042;2023-03-19T09:16:49;95415.59;;;14.39;43.53
20013;BME280;10167;42.852;23.042;2023-03-19T09:19:20;95411.00;;;14.34;44.04
20013;BME280;10167;42.852;23.042;2023-03-19T09:21:50;95411.28;;;14.76;42.45
20013;BME280;10167;42.852;23.042;2023-03-19T09:24:19;95415.84;;;14.37;40.56
20013;BME280;10167;42.852;23.042;2023-03-19T09:26:48;95405.59;;;14.95;41.67
20013;BME280;10167;42.852;23.042;2023-03-19T09:29:17;95412.13;;;15.36;41.39
20013;BME280;10167;42.852;23.042;2023-03-19T09:31:46;95405.38;;;15.23;41.38
20013;BME280;10167;42.852;23.042;2023-03-19T09:34:16;95397.28;;;15.77;41.16
20013;BME280;10167;42.852;23.042;2023-03-19T09:36:47;95390.22;;;15.60;40.21
20013;BME280;10167;42.852;23.042;2023-03-19T09:39:23;95393.03;;;15.81;38.66
20013;BME280;10167;42.852;23.042;2023-03-19T09:42:04;95389.28;;;16.24;38.85
20013;BME280;10167;42.852;23.042;2023-03-19T09:44:39;95386.19;;;16.47;38.10
20013;BME280;10167;42.852;23.042;2023-03-19T09:47:24;95390.16;;;16.40;38.11
20013;BME280;10167;42.852;23.042;2023-03-19T09:49:56;95386.25;;;16.62;36.15
20013;BME280;10167;42.852;23.042;2023-03-19T09:52:38;95387.13;;;16.83;34.35
20013;BME280;10167;42.852;23.042;2023-03-19T09:55:29;95377.03;;;17.31;33.29
20013;BME280;10167;42.852;23.042;2023-03-19T09:58:09;95365.78;;;16.98;33.31
20013;BME280;10167;42.852;23.042;2023-03-19T10:00:42;95375.97;;;17.12;33.47
20013;BME280;10167;42.852;23.042;2023-03-19T10:03:28;95369.00;;;17.51;34.70
20013;BME280;10167;42.852;23.042;2023-03-19T10:06:09;95371.94;;;17.95;33.17
20013;BME280;10167;42.852;23.042;2023-03-19T10:11:52;95363.69;;;17.82;33.17
20013;BME280;10167;42.852;23.042;2023-03-19T10:14:40;95362.31;;;17.84;33.81
20013;BME280;10167;42.852;23.042;2023-03-19T10:17:17;95359.03;;;18.18;32.98
20013;BME280;10167;42.852;23.042;2023-03-19T10:19:50;95354.38;;;18.43;33.72
20013;BME280;10167;42.852;23.042;2023-03-19T10:22:24;95343.84;;;18.67;33.41
20013;BME280;10167;42.852;23.042;2023-03-19T10:24:58;95344.72;;;18.42;32.94
20013;BME280;10167;42.852;23.042;2023-03-19T10:27:29;95336.19;;;18.30;34.70
20013;BME280;10167;42.852;23.042;2023-03-19T10:29:58;95342.03;;;18.47;32.93
20013;BME280;10167;42.852;23.042;2023-03-19T10:32:37;95337.41;;;17.94;32.07
20013;BME280;10167;42.852;23.042;2023-03-19T10:35:17;95322.63;;;17.96;32.10
20013;BME280;10167;42.852;23.042;2023-03-19T10:37:47;95316.94;;;18.18;33.10
20013;BME280;10167;42.852;23.042;2023-03-19T10:40:23;95311.00;;;18.31;31.52
20013;BME280;10167;42.852;23.042;2023-03-19T10:43:04;95302.53;;;18.68;32.31
20013;BME280;10167;42.852;23.042;2023-03-19T10:45:37;95307.44;;;19.00;31.38
20013;BME280;10167;42.852;23.042;2023-03-19T10:48:11;95300.09;;;19.45;31.86
20013;BME280;10167;42.852;23.042;2023-03-19T10:50:47;95298.94;;;19.56;30.50
20013;BME280;10167;42.852;23.042;2023-03-19T10:53:28;95291.38;;;19.87;30.60
20013;BME280;10167;42.852;23.042;2023-03-19T10:56:03;95291.72;;;20.28;30.96
20013;BME280;10167;42.852;23.042;2023-03-19T10:58:34;95287.41;;;19.21;31.01
20013;BME280;10167;42.852;23.042;2023-03-19T11:01:05;95273.44;;;19.82;31.46
20013;BME280;10167;42.852;23.042;2023-03-19T11:03:37;95275.13;;;19.44;31.52
20013;BME280;10167;42.852;23.042;2023-03-19T11:06:18;95272.22;;;19.41;31.61
20013;BME280;10167;42.852;23.042;2023-03-19T11:08:52;95264.81;;;19.85;31.58
20013;BME280;10167;42.852;23.042;2023-03-19T11:11:26;95262.56;;;20.16;31.32
20013;BME280;10167;42.852;23.042;2023-03-19T11:14:11;95260.44;;;20.37;30.63
20013;BME280;10167;42.852;23.042;2023-03-19T11:16:50;95255.66;;;20.53;30.15
20013;BME280;10167;42.852;23.042;2023-03-19T11:19:21;95251.00;;;20.96;30.03
20013;BME280;10167;42.852;23.042;2023-03-19T11:22:07;95240.47;;;21.13;29.47
20013;BME280;10167;42.852;23.042;2023-03-19T11:24:37;95237.56;;;21.28;30.41
20013;BME280;10167;42.852;23.042;2023-03-19T11:27:09;95232.00;;;21.38;29.62
20013;BME280;10167;42.852;23.042;2023-03-19T11:29:41;95230.59;;;21.09;29.26
20013;BME280;10167;42.852;23.042;2023-03-19T11:35:19;95217.50;;;21.02;30.25
20013;BME280;10167;42.852;23.042;2023-03-19T11:37:53;95214.59;;;21.77;28.74
20013;BME280;10167;42.852;23.042;2023-03-19T11:40:34;95205.88;;;21.07;30.05
20013;BME280;10167;42.852;23.042;2023-03-19T11:43:38;95206.59;;;21.72;29.47
20013;BME280;10167;42.852;23.042;2023-03-19T11:49:30;95195.16;;;21.20;30.02
20013;BME280;10167;42.852;23.042;2023-03-19T11:52:11;95181.03;;;21.56;30.89
20013;BME280;10167;42.852;23.042;2023-03-19T11:54:49;95191.81;;;21.56;30.53
20013;BME280;10167;42.852;23.042;2023-03-19T11:57:37;95182.81;;;21.47;29.47
20013;BME280;10167;42.852;23.042;2023-03-19T12:00:23;95173.53;;;21.80;30.95
20013;BME280;10167;42.852;23.042;2023-03-19T12:03:25;95171.34;;;21.82;30.49
20013;BME280;10167;42.852;23.042;2023-03-19T12:05:58;95173.72;;;22.25;29.59
20013;BME280;10167;42.852;23.042;2023-03-19T12:08:31;95172.38;;;22.36;29.71
20013;BME280;10167;42.852;23.042;2023-03-19T12:11:12;95171.75;;;21.89;28.82
20013;BME280;10167;42.852;23.042;2023-03-19T12:14:01;95163.06;;;21.37;29.40
20013;BME280;10167;42.852;23.042;2023-03-19T12:16:45;95162.53;;;21.35;29.96
20013;BME280;10167;42.852;23.042;2023-03-19T12:19:30;95167.16;;;21.62;29.72
20013;BME280;10167;42.852;23.042;2023-03-19T12:22:11;95159.19;;;21.85;29.65
20013;BME280;10167;42.852;23.042;2023-03-19T12:25:08;95163.25;;;22.23;29.52
20013;BME280;10167;42.852;23.042;2023-03-19T12:27:47;95157.00;;;22.95;27.99
20013;BME280;10167;42.852;23.042;2023-03-19T12:30:29;95153.56;;;23.03;28.06
20013;BME280;10167;42.852;23.042;2023-03-19T12:33:15;95150.91;;;23.73;28.01
20013;BME280;10167;42.852;23.042;2023-03-19T12:35:49;95149.00;;;24.22;26.96
20013;BME280;10167;42.852;23.042;2023-03-19T12:38:23;95150.19;;;23.99;27.79
20013;BME280;10167;42.852;23.042;2023-03-19T12:40:58;95150.38;;;24.11;27.19
20013;BME280;10167;42.852;23.042;2023-03-19T12:43:34;95146.50;;;23.95;26.27
20013;BME280;10167;42.852;23.042;2023-03-19T12:46:08;95136.19;;;24.05;26.56
20013;BME280;10167;42.852;23.042;2023-03-19T12:48:44;95135.72;;;24.12;27.25
20013;BME280;10167;42.852;23.042;2023-03-19T12:51:18;95125.19;;;23.93;26.81
20013;BME280;10167;42.852;23.042;2023-03-19T12:53:50;95131.13;;;23.25;27.09
20013;BME280;10167;42.852;23.042;2023-03-19T12:56:26;95127.88;;;23.93;26.64
20013;BME280;10167;42.852;23.042;2023-03-19T12:59:02;95125.03;;;23.81;26.58
20013;BME280;10167;42.852;23.042;2023-03-19T13:01:39;95111.66;;;23.84;27.66
20013;BME280;10167;42.852;23.042;2023-03-19T13:04:17;95119.03;;;23.53;26.52
20013;BME280;10167;42.852;23.042;2023-03-19T13:06:51;95123.03;;;24.64;26.36
20013;BME280;10167;42.852;23.042;2023-03-19T13:09:31;95113.19;;;24.42;25.69
20013;BME280;10167;42.852;23.042;2023-03-19T13:12:03;95112.19;;;24.99;25.99
20013;BME280;10167;42.852;23.042;2023-03-19T13:14:44;95109.19;;;24.66;25.85
20013;BME280;10167;42.852;23.042;2023-03-19T13:17:22;95111.59;;;24.41;26.03
20013;BME280;10167;42.852;23.042;2023-03-19T13:19:55;95105.34;;;24.15;25.73
20013;BME280;10167;42.852;23.042;2023-03-19T13:22:28;95100.44;;;22.90;28.20
20013;BME280;10167;42.852;23.042;2023-03-19T13:25:01;95098.53;;;22.68;27.41
20013;BME280;10167;42.852;23.042;2023-03-19T13:27:32;95094.41;;;22.70;27.54
20013;BME280;10167;42.852;23.042;2023-03-19T13:30:16;95095.66;;;22.06;28.32
20013;BME280;10167;42.852;23.042;2023-03-19T13:32:48;95094.69;;;22.24;29.12